sensor_id;sensor_type;location;lat;lon;timestamp;temperature;humidity
10538;DHT22;5317;49.048;8.468;2022-08-19T00:01:19;25.70;59.60
10538;DHT22;5317;49.048;8.468;2022-08-19T00:03:46;25.80;59.60
10538;DHT22;5317;49.048;8.468;2022-08-19T00:06:15;25.70;59.50
10538;DHT22;5317;49.048;8.468;2022-08-19T00:08:44;25.70;59.60
10538;DHT22;5317;49.048;8.468;2022-08-19T00:11:11;25.70;59.60
10538;DHT22;5317;49.048;8.468;2022-08-19T00:13:39;25.70;59.70
10538;DHT22;5317;49.048;8.468;2022-08-19T00:16:06;25.70;59.70
10538;DHT22;5317;49.048;8.468;2022-08-19T00:18:34;25.60;59.80
10538;DHT22;5317;49.048;8.468;2022-08-19T00:21:01;25.60;59.90
10538;DHT22;5317;49.048;8.468;2022-08-19T00:23:34;25.70;60.00
10538;DHT22;5317;49.048;8.468;2022-08-19T00:26:03;25.70;60.20
10538;DHT22;5317;49.048;8.468;2022-08-19T00:28:31;25.60;60.40
10538;DHT22;5317;49.048;8.468;2022-08-19T00:30:59;25.70;60.50
10538;DHT22;5317;49.048;8.468;2022-08-19T00:33:28;25.70;60.60
10538;DHT22;5317;49.048;8.468;2022-08-19T00:35:58;25.70;60.70
10538;DHT22;5317;49.048;8.468;2022-08-19T00:38:25;25.70;60.90
10538;DHT22;5317;49.048;8.468;2022-08-19T00:40:52;25.60;61.20
10538;DHT22;5317;49.048;8.468;2022-08-19T00:43:23;25.70;61.40
10538;DHT22;5317;49.048;8.468;2022-08-19T00:45:52;25.60;61.50
10538;DHT22;5317;49.048;8.468;2022-08-19T00:48:20;25.60;61.60
10538;DHT22;5317;49.048;8.468;2022-08-19T00:50:49;25.60;61.80
10538;DHT22;5317;49.048;8.468;2022-08-19T00:53:22;25.70;62.10
10538;DHT22;5317;49.048;8.468;2022-08-19T00:55:53;25.70;62.00
10538;DHT22;5317;49.048;8.468;2022-08-19T00:58:29;25.70;62.30
10538;DHT22;5317;49.048;8.468;2022-08-19T01:00:59;25.70;62.00
10538;DHT22;5317;49.048;8.468;2022-08-19T01:03:28;25.70;61.60
10538;DHT22;5317;49.048;8.468;2022-08-19T01:05:55;25.70;61.40
10538;DHT22;5317;49.048;8.468;2022-08-19T01:08:23;25.60;61.30
10538;DHT22;5317;49.048;8.468;2022-08-19T01:10:53;25.60;61.40
10538;DHT22;5317;49.048;8.468;2022-08-19T01:13:26;25.60;61.50
10538;DHT22;5317;49.048;8.468;2022-08-19T01:16:01;25.60;61.70
10538;DHT22;5317;49.048;8.468;2022-08-19T01:18:36;25.50;61.80
10538;DHT22;5317;49.048;8.468;2022-08-19T01:21:10;25.50;62.00
10538;DHT22;5317;49.048;8.468;2022-08-19T01:23:43;25.60;62.00
10538;DHT22;5317;49.048;8.468;2022-08-19T01:26:13;25.50;62.30
10538;DHT22;5317;49.048;8.468;2022-08-19T01:28:43;25.50;62.40
10538;DHT22;5317;49.048;8.468;2022-08-19T01:31:14;25.40;62.90
10538;DHT22;5317;49.048;8.468;2022-08-19T01:33:44;25.50;63.20
10538;DHT22;5317;49.048;8.468;2022-08-19T01:36:22;25.40;63.50
10538;DHT22;5317;49.048;8.468;2022-08-19T01:38:52;25.40;64.20
10538;DHT22;5317;49.048;8.468;2022-08-19T01:41:19;25.30;64.20
10538;DHT22;5317;49.048;8.468;2022-08-19T01:43:49;25.40;64.50
10538;DHT22;5317;49.048;8.468;2022-08-19T01:46:17;25.50;64.80
10538;DHT22;5317;49.048;8.468;2022-08-19T01:48:46;25.50;64.50
10538;DHT22;5317;49.048;8.468;2022-08-19T01:51:14;25.50;64.80
10538;DHT22;5317;49.048;8.468;2022-08-19T01:53:42;25.50;65.50
10538;DHT22;5317;49.048;8.468;2022-08-19T01:56:10;25.50;65.80
10538;DHT22;5317;49.048;8.468;2022-08-19T01:58:41;25.50;66.00
10538;DHT22;5317;49.048;8.468;2022-08-19T02:01:17;25.50;66.80
10538;DHT22;5317;49.048;8.468;2022-08-19T02:03:45;25.50;67.00
10538;DHT22;5317;49.048;8.468;2022-08-19T02:06:13;25.40;67.40
10538;DHT22;5317;49.048;8.468;2022-08-19T02:08:43;25.40;67.80
10538;DHT22;5317;49.048;8.468;2022-08-19T02:11:21;25.40;67.40
10538;DHT22;5317;49.048;8.468;2022-08-19T02:13:52;25.40;67.80
10538;DHT22;5317;49.048;8.468;2022-08-19T02:16:19;25.40;67.10
10538;DHT22;5317;49.048;8.468;2022-08-19T02:18:47;25.40;66.90
10538;DHT22;5317;49.048;8.468;2022-08-19T02:24:47;25.40;67.80
10538;DHT22;5317;49.048;8.468;2022-08-19T02:27:16;25.30;67.20
10538;DHT22;5317;49.048;8.468;2022-08-19T02:29:43;25.30;67.70
10538;DHT22;5317;49.048;8.468;2022-08-19T02:32:12;25.40;67.80
10538;DHT22;5317;49.048;8.468;2022-08-19T02:34:39;25.40;67.80
10538;DHT22;5317;49.048;8.468;2022-08-19T02:37:07;25.40;67.80
10538;DHT22;5317;49.048;8.468;2022-08-19T02:39:54;25.50;67.80
10538;DHT22;5317;49.048;8.468;2022-08-19T02:42:22;25.40;67.50
10538;DHT22;5317;49.048;8.468;2022-08-19T02:44:50;25.40;67.80
10538;DHT22;5317;49.048;8.468;2022-08-19T02:47:17;25.40;67.90
10538;DHT22;5317;49.048;8.468;2022-08-19T02:49:45;25.30;67.70
10538;DHT22;5317;49.048;8.468;2022-08-19T02:52:15;25.30;67.70
10538;DHT22;5317;49.048;8.468;2022-08-19T02:54:43;25.40;67.80
10538;DHT22;5317;49.048;8.468;2022-08-19T02:57:10;25.30;68.20
10538;DHT22;5317;49.048;8.468;2022-08-19T02:59:40;25.30;68.80
10538;DHT22;5317;49.048;8.468;2022-08-19T03:02:07;25.20;69.40
10538;DHT22;5317;49.048;8.468;2022-08-19T03:04:35;25.20;69.40
10538;DHT22;5317;49.048;8.468;2022-08-19T03:07:02;25.10;69.70
10538;DHT22;5317;49.048;8.468;2022-08-19T03:09:29;25.00;69.70
10538;DHT22;5317;49.048;8.468;2022-08-19T03:11:56;25.00;69.70
10538;DHT22;5317;49.048;8.468;2022-08-19T03:14:23;25.00;69.70
10538;DHT22;5317;49.048;8.468;2022-08-19T03:16:52;25.00;69.50
10538;DHT22;5317;49.048;8.468;2022-08-19T03:19:20;25.10;69.50
10538;DHT22;5317;49.048;8.468;2022-08-19T03:21:47;25.10;69.50
10538;DHT22;5317;49.048;8.468;2022-08-19T03:24:16;25.10;69.60
10538;DHT22;5317;49.048;8.468;2022-08-19T03:26:46;25.10;69.80
10538;DHT22;5317;49.048;8.468;2022-08-19T03:29:15;25.10;69.80
10538;DHT22;5317;49.048;8.468;2022-08-19T03:31:44;25.10;70.10
10538;DHT22;5317;49.048;8.468;2022-08-19T03:34:16;25.00;70.00
10538;DHT22;5317;49.048;8.468;2022-08-19T03:36:46;25.10;70.30
10538;DHT22;5317;49.048;8.468;2022-08-19T03:39:14;25.10;70.30
10538;DHT22;5317;49.048;8.468;2022-08-19T03:41:44;25.10;70.20
10538;DHT22;5317;49.048;8.468;2022-08-19T03:44:17;25.10;70.20
10538;DHT22;5317;49.048;8.468;2022-08-19T03:46:48;25.10;70.50
10538;DHT22;5317;49.048;8.468;2022-08-19T03:49:18;25.00;71.10
10538;DHT22;5317;49.048;8.468;2022-08-19T03:51:47;24.90;71.70
10538;DHT22;5317;49.048;8.468;2022-08-19T03:54:18;24.80;72.60
10538;DHT22;5317;49.048;8.468;2022-08-19T03:56:50;24.70;72.90
10538;DHT22;5317;49.048;8.468;2022-08-19T03:59:27;24.60;73.10
10538;DHT22;5317;49.048;8.468;2022-08-19T04:01:57;24.50;73.90
10538;DHT22;5317;49.048;8.468;2022-08-19T04:04:28;24.40;73.90
10538;DHT22;5317;49.048;8.468;2022-08-19T04:06:56;24.40;73.90
10538;DHT22;5317;49.048;8.468;2022-08-19T04:09:23;24.40;73.70
10538;DHT22;5317;49.048;8.468;2022-08-19T04:11:54;24.40;74.10
10538;DHT22;5317;49.048;8.468;2022-08-19T04:14:26;24.30;74.20
10538;DHT22;5317;49.048;8.468;2022-08-19T04:16:55;24.30;74.40
10538;DHT22;5317;49.048;8.468;2022-08-19T04:19:23;24.20;74.50
10538;DHT22;5317;49.048;8.468;2022-08-19T04:21:53;24.20;74.50
10538;DHT22;5317;49.048;8.468;2022-08-19T04:24:22;24.20;74.50
10538;DHT22;5317;49.048;8.468;2022-08-19T04:26:50;24.20;74.10
10538;DHT22;5317;49.048;8.468;2022-08-19T04:29:20;24.30;73.90
10538;DHT22;5317;49.048;8.468;2022-08-19T04:31:51;24.40;73.60
10538;DHT22;5317;49.048;8.468;2022-08-19T04:34:23;24.40;73.30
10538;DHT22;5317;49.048;8.468;2022-08-19T04:36:55;24.50;73.30
10538;DHT22;5317;49.048;8.468;2022-08-19T04:39:25;24.50;73.20
10538;DHT22;5317;49.048;8.468;2022-08-19T04:42:16;24.60;73.10
10538;DHT22;5317;49.048;8.468;2022-08-19T04:45:02;24.60;73.00
10538;DHT22;5317;49.048;8.468;2022-08-19T04:47:29;24.60;72.90
10538;DHT22;5317;49.048;8.468;2022-08-19T04:49:58;24.60;73.00
10538;DHT22;5317;49.048;8.468;2022-08-19T04:52:27;24.60;73.10
10538;DHT22;5317;49.048;8.468;2022-08-19T04:54:57;24.70;73.20
10538;DHT22;5317;49.048;8.468;2022-08-19T04:57:25;24.70;73.50
10538;DHT22;5317;49.048;8.468;2022-08-19T04:59:54;24.70;72.60
10538;DHT22;5317;49.048;8.468;2022-08-19T05:02:22;24.70;72.60
10538;DHT22;5317;49.048;8.468;2022-08-19T05:04:51;24.80;72.50
10538;DHT22;5317;49.048;8.468;2022-08-19T05:07:22;24.80;73.20
10538;DHT22;5317;49.048;8.468;2022-08-19T05:09:51;24.80;72.40
10538;DHT22;5317;49.048;8.468;2022-08-19T05:12:20;24.80;72.60
10538;DHT22;5317;49.048;8.468;2022-08-19T05:14:47;24.80;72.40
10538;DHT22;5317;49.048;8.468;2022-08-19T05:17:15;24.80;72.00
10538;DHT22;5317;49.048;8.468;2022-08-19T05:19:42;24.80;71.10
10538;DHT22;5317;49.048;8.468;2022-08-19T05:22:27;24.80;70.60
10538;DHT22;5317;49.048;8.468;2022-08-19T05:25:04;24.80;70.20
10538;DHT22;5317;49.048;8.468;2022-08-19T05:27:33;24.70;70.40
10538;DHT22;5317;49.048;8.468;2022-08-19T05:30:01;24.70;70.90
10538;DHT22;5317;49.048;8.468;2022-08-19T05:32:29;24.60;70.40
10538;DHT22;5317;49.048;8.468;2022-08-19T05:34:59;24.60;70.50
10538;DHT22;5317;49.048;8.468;2022-08-19T05:37:27;24.60;70.10
10538;DHT22;5317;49.048;8.468;2022-08-19T05:39:55;24.50;69.70
10538;DHT22;5317;49.048;8.468;2022-08-19T05:42:24;24.60;69.80
10538;DHT22;5317;49.048;8.468;2022-08-19T05:44:52;24.60;69.40
10538;DHT22;5317;49.048;8.468;2022-08-19T05:47:19;24.60;69.30
10538;DHT22;5317;49.048;8.468;2022-08-19T05:49:47;24.70;68.90
10538;DHT22;5317;49.048;8.468;2022-08-19T05:52:16;24.80;68.80
10538;DHT22;5317;49.048;8.468;2022-08-19T05:54:44;24.80;68.10
10538;DHT22;5317;49.048;8.468;2022-08-19T05:57:13;24.80;68.00
10538;DHT22;5317;49.048;8.468;2022-08-19T05:59:42;24.80;67.70
10538;DHT22;5317;49.048;8.468;2022-08-19T06:02:20;24.90;67.40
10538;DHT22;5317;49.048;8.468;2022-08-19T06:04:47;24.80;67.50
10538;DHT22;5317;49.048;8.468;2022-08-19T06:07:15;24.80;68.10
10538;DHT22;5317;49.048;8.468;2022-08-19T06:09:42;24.80;67.40
10538;DHT22;5317;49.048;8.468;2022-08-19T06:12:09;24.90;67.40
10538;DHT22;5317;49.048;8.468;2022-08-19T06:14:37;24.90;67.20
10538;DHT22;5317;49.048;8.468;2022-08-19T06:17:05;25.00;67.10
10538;DHT22;5317;49.048;8.468;2022-08-19T06:19:33;25.00;67.00
10538;DHT22;5317;49.048;8.468;2022-08-19T06:22:00;24.90;66.70
10538;DHT22;5317;49.048;8.468;2022-08-19T06:24:29;24.90;66.80
10538;DHT22;5317;49.048;8.468;2022-08-19T06:26:59;24.90;66.90
10538;DHT22;5317;49.048;8.468;2022-08-19T06:29:27;25.00;67.10
10538;DHT22;5317;49.048;8.468;2022-08-19T06:31:57;25.00;66.70
10538;DHT22;5317;49.048;8.468;2022-08-19T06:34:29;24.90;67.00
10538;DHT22;5317;49.048;8.468;2022-08-19T06:36:59;24.90;67.40
10538;DHT22;5317;49.048;8.468;2022-08-19T06:39:30;24.90;67.40
10538;DHT22;5317;49.048;8.468;2022-08-19T06:42:00;24.90;67.40
10538;DHT22;5317;49.048;8.468;2022-08-19T06:44:37;24.90;67.10
10538;DHT22;5317;49.048;8.468;2022-08-19T06:47:08;25.00;67.00
10538;DHT22;5317;49.048;8.468;2022-08-19T06:49:38;25.10;66.30
10538;DHT22;5317;49.048;8.468;2022-08-19T06:52:06;25.20;66.70
10538;DHT22;5317;49.048;8.468;2022-08-19T06:54:33;25.20;65.80
10538;DHT22;5317;49.048;8.468;2022-08-19T06:57:01;25.20;65.70
10538;DHT22;5317;49.048;8.468;2022-08-19T06:59:29;25.20;64.90
10538;DHT22;5317;49.048;8.468;2022-08-19T07:02:00;25.20;64.80
10538;DHT22;5317;49.048;8.468;2022-08-19T07:04:33;25.20;64.00
10538;DHT22;5317;49.048;8.468;2022-08-19T07:07:07;25.30;63.60
10538;DHT22;5317;49.048;8.468;2022-08-19T07:09:41;25.30;63.80
10538;DHT22;5317;49.048;8.468;2022-08-19T07:12:13;25.30;63.30
10538;DHT22;5317;49.048;8.468;2022-08-19T07:14:41;25.40;63.40
10538;DHT22;5317;49.048;8.468;2022-08-19T07:17:12;25.50;62.00
10538;DHT22;5317;49.048;8.468;2022-08-19T07:19:41;25.50;62.20
10538;DHT22;5317;49.048;8.468;2022-08-19T07:22:10;25.60;61.40
10538;DHT22;5317;49.048;8.468;2022-08-19T07:24:38;25.60;61.80
10538;DHT22;5317;49.048;8.468;2022-08-19T07:27:06;25.80;61.80
10538;DHT22;5317;49.048;8.468;2022-08-19T07:29:36;25.90;61.90
10538;DHT22;5317;49.048;8.468;2022-08-19T07:32:04;25.90;61.40
10538;DHT22;5317;49.048;8.468;2022-08-19T07:34:33;26.00;61.10
10538;DHT22;5317;49.048;8.468;2022-08-19T07:37:03;26.10;60.40
10538;DHT22;5317;49.048;8.468;2022-08-19T07:39:34;26.10;60.60
10538;DHT22;5317;49.048;8.468;2022-08-19T07:42:06;26.30;60.90
10538;DHT22;5317;49.048;8.468;2022-08-19T07:44:36;26.30;60.20
10538;DHT22;5317;49.048;8.468;2022-08-19T07:47:04;26.40;59.70
10538;DHT22;5317;49.048;8.468;2022-08-19T07:49:34;26.40;59.90
10538;DHT22;5317;49.048;8.468;2022-08-19T07:52:04;26.50;59.60
10538;DHT22;5317;49.048;8.468;2022-08-19T07:54:37;26.50;59.40
10538;DHT22;5317;49.048;8.468;2022-08-19T07:57:06;26.60;59.70
10538;DHT22;5317;49.048;8.468;2022-08-19T07:59:34;26.60;59.50
10538;DHT22;5317;49.048;8.468;2022-08-19T08:02:02;26.60;59.80
10538;DHT22;5317;49.048;8.468;2022-08-19T08:04:30;26.70;59.80
10538;DHT22;5317;49.048;8.468;2022-08-19T08:07:15;26.70;59.50
10538;DHT22;5317;49.048;8.468;2022-08-19T08:10:03;26.70;59.40
10538;DHT22;5317;49.048;8.468;2022-08-19T08:12:34;26.60;59.60
10538;DHT22;5317;49.048;8.468;2022-08-19T08:15:10;26.70;59.40
10538;DHT22;5317;49.048;8.468;2022-08-19T08:17:42;26.70;59.30
10538;DHT22;5317;49.048;8.468;2022-08-19T08:20:10;26.90;59.60
10538;DHT22;5317;49.048;8.468;2022-08-19T08:22:43;27.00;59.80
10538;DHT22;5317;49.048;8.468;2022-08-19T08:25:30;27.00;59.30
10538;DHT22;5317;49.048;8.468;2022-08-19T08:27:58;27.20;59.30
10538;DHT22;5317;49.048;8.468;2022-08-19T08:30:27;27.30;58.90
10538;DHT22;5317;49.048;8.468;2022-08-19T08:32:55;27.40;58.90
10538;DHT22;5317;49.048;8.468;2022-08-19T08:35:24;27.50;58.50
10538;DHT22;5317;49.048;8.468;2022-08-19T08:37:53;27.50;58.00
10538;DHT22;5317;49.048;8.468;2022-08-19T08:40:26;27.60;58.10
10538;DHT22;5317;49.048;8.468;2022-08-19T08:43:02;27.70;58.20
10538;DHT22;5317;49.048;8.468;2022-08-19T08:45:35;27.70;57.60
10538;DHT22;5317;49.048;8.468;2022-08-19T08:48:16;27.80;57.50
10538;DHT22;5317;49.048;8.468;2022-08-19T08:50:51;28.00;56.90
10538;DHT22;5317;49.048;8.468;2022-08-19T08:53:22;28.00;56.80
10538;DHT22;5317;49.048;8.468;2022-08-19T08:55:51;28.10;56.50
10538;DHT22;5317;49.048;8.468;2022-08-19T08:58:29;28.20;56.60
10538;DHT22;5317;49.048;8.468;2022-08-19T09:01:09;28.30;55.70
10538;DHT22;5317;49.048;8.468;2022-08-19T09:03:38;28.30;55.50
10538;DHT22;5317;49.048;8.468;2022-08-19T09:06:13;28.40;55.50
10538;DHT22;5317;49.048;8.468;2022-08-19T09:08:49;28.40;55.30
10538;DHT22;5317;49.048;8.468;2022-08-19T09:11:38;28.50;55.10
10538;DHT22;5317;49.048;8.468;2022-08-19T09:14:31;28.50;55.10
10538;DHT22;5317;49.048;8.468;2022-08-19T09:17:03;28.60;54.80
10538;DHT22;5317;49.048;8.468;2022-08-19T09:19:34;28.60;54.90
10538;DHT22;5317;49.048;8.468;2022-08-19T09:22:02;28.70;54.60
10538;DHT22;5317;49.048;8.468;2022-08-19T09:24:30;28.80;54.80
10538;DHT22;5317;49.048;8.468;2022-08-19T09:26:58;28.80;54.60
10538;DHT22;5317;49.048;8.468;2022-08-19T09:29:26;29.00;54.30
10538;DHT22;5317;49.048;8.468;2022-08-19T09:31:55;29.20;54.40
10538;DHT22;5317;49.048;8.468;2022-08-19T09:34:23;29.30;54.30
10538;DHT22;5317;49.048;8.468;2022-08-19T09:36:50;29.30;53.70
10538;DHT22;5317;49.048;8.468;2022-08-19T09:39:18;29.40;53.90
10538;DHT22;5317;49.048;8.468;2022-08-19T09:41:46;29.50;53.50
10538;DHT22;5317;49.048;8.468;2022-08-19T09:44:15;29.60;53.60
10538;DHT22;5317;49.048;8.468;2022-08-19T09:46:44;29.60;52.70
10538;DHT22;5317;49.048;8.468;2022-08-19T09:49:12;29.50;52.80
10538;DHT22;5317;49.048;8.468;2022-08-19T09:51:40;29.50;52.90
10538;DHT22;5317;49.048;8.468;2022-08-19T09:54:07;29.50;52.60
10538;DHT22;5317;49.048;8.468;2022-08-19T09:56:34;29.50;52.50
10538;DHT22;5317;49.048;8.468;2022-08-19T09:59:03;29.50;52.10
10538;DHT22;5317;49.048;8.468;2022-08-19T10:01:32;29.60;52.00
10538;DHT22;5317;49.048;8.468;2022-08-19T10:04:01;29.70;51.90
10538;DHT22;5317;49.048;8.468;2022-08-19T10:06:30;29.70;51.80
10538;DHT22;5317;49.048;8.468;2022-08-19T10:09:00;29.80;51.80
10538;DHT22;5317;49.048;8.468;2022-08-19T10:11:29;29.90;51.90
10538;DHT22;5317;49.048;8.468;2022-08-19T10:13:57;30.00;51.00
10538;DHT22;5317;49.048;8.468;2022-08-19T10:16:25;30.10;51.50
10538;DHT22;5317;49.048;8.468;2022-08-19T10:18:55;30.20;50.30
10538;DHT22;5317;49.048;8.468;2022-08-19T10:21:26;30.30;50.20
10538;DHT22;5317;49.048;8.468;2022-08-19T10:23:58;30.40;50.00
10538;DHT22;5317;49.048;8.468;2022-08-19T10:26:31;30.60;50.10
10538;DHT22;5317;49.048;8.468;2022-08-19T10:29:04;30.70;49.20
10538;DHT22;5317;49.048;8.468;2022-08-19T10:31:33;30.70;49.00
10538;DHT22;5317;49.048;8.468;2022-08-19T10:34:01;30.80;48.40
10538;DHT22;5317;49.048;8.468;2022-08-19T10:36:31;30.80;48.40
10538;DHT22;5317;49.048;8.468;2022-08-19T10:39:02;31.00;48.20
10538;DHT22;5317;49.048;8.468;2022-08-19T10:41:34;31.10;48.30
10538;DHT22;5317;49.048;8.468;2022-08-19T10:44:06;31.00;47.80
10538;DHT22;5317;49.048;8.468;2022-08-19T10:46:41;31.00;47.70
10538;DHT22;5317;49.048;8.468;2022-08-19T10:49:12;31.00;47.70
10538;DHT22;5317;49.048;8.468;2022-08-19T10:51:41;31.00;48.00
10538;DHT22;5317;49.048;8.468;2022-08-19T10:54:27;31.10;47.70
10538;DHT22;5317;49.048;8.468;2022-08-19T10:57:08;31.30;47.60
10538;DHT22;5317;49.048;8.468;2022-08-19T10:59:35;31.50;47.20
10538;DHT22;5317;49.048;8.468;2022-08-19T11:02:05;31.60;47.30
10538;DHT22;5317;49.048;8.468;2022-08-19T11:04:35;31.80;46.70
10538;DHT22;5317;49.048;8.468;2022-08-19T11:07:05;31.90;47.00
10538;DHT22;5317;49.048;8.468;2022-08-19T11:09:38;32.00;46.00
10538;DHT22;5317;49.048;8.468;2022-08-19T11:12:09;32.10;45.70
10538;DHT22;5317;49.048;8.468;2022-08-19T11:14:38;32.10;45.30
10538;DHT22;5317;49.048;8.468;2022-08-19T11:17:05;32.20;45.20
10538;DHT22;5317;49.048;8.468;2022-08-19T11:19:34;32.20;45.00
10538;DHT22;5317;49.048;8.468;2022-08-19T11:22:01;32.30;44.90
10538;DHT22;5317;49.048;8.468;2022-08-19T11:24:31;32.30;44.90
10538;DHT22;5317;49.048;8.468;2022-08-19T11:27:05;32.30;44.60
10538;DHT22;5317;49.048;8.468;2022-08-19T11:29:37;32.30;44.60
10538;DHT22;5317;49.048;8.468;2022-08-19T11:32:06;32.50;44.70
10538;DHT22;5317;49.048;8.468;2022-08-19T11:34:36;32.50;44.40
10538;DHT22;5317;49.048;8.468;2022-08-19T11:37:05;32.60;44.20
10538;DHT22;5317;49.048;8.468;2022-08-19T11:39:35;32.60;44.00
10538;DHT22;5317;49.048;8.468;2022-08-19T11:42:04;32.50;43.50
10538;DHT22;5317;49.048;8.468;2022-08-19T11:44:54;32.40;43.00
10538;DHT22;5317;49.048;8.468;2022-08-19T11:47:21;32.40;43.80
10538;DHT22;5317;49.048;8.468;2022-08-19T11:49:48;32.30;43.80
10538;DHT22;5317;49.048;8.468;2022-08-19T11:52:18;32.30;43.70
10538;DHT22;5317;49.048;8.468;2022-08-19T11:54:45;32.10;43.80
10538;DHT22;5317;49.048;8.468;2022-08-19T11:57:13;32.10;44.70
10538;DHT22;5317;49.048;8.468;2022-08-19T11:59:42;32.10;43.90
10538;DHT22;5317;49.048;8.468;2022-08-19T12:02:15;32.10;43.90
10538;DHT22;5317;49.048;8.468;2022-08-19T12:04:42;32.20;43.90
10538;DHT22;5317;49.048;8.468;2022-08-19T12:07:10;32.20;44.00
10538;DHT22;5317;49.048;8.468;2022-08-19T12:09:39;32.20;43.60
10538;DHT22;5317;49.048;8.468;2022-08-19T12:12:07;32.20;43.80
10538;DHT22;5317;49.048;8.468;2022-08-19T12:14:34;32.00;43.40
10538;DHT22;5317;49.048;8.468;2022-08-19T12:17:02;32.20;44.20
10538;DHT22;5317;49.048;8.468;2022-08-19T12:19:33;32.30;44.10
10538;DHT22;5317;49.048;8.468;2022-08-19T12:22:01;32.30;43.50
10538;DHT22;5317;49.048;8.468;2022-08-19T12:24:30;32.10;42.20
10538;DHT22;5317;49.048;8.468;2022-08-19T12:26:59;31.60;43.80
10538;DHT22;5317;49.048;8.468;2022-08-19T12:29:28;31.50;43.10
10538;DHT22;5317;49.048;8.468;2022-08-19T12:31:57;31.30;43.90
10538;DHT22;5317;49.048;8.468;2022-08-19T12:34:28;31.00;43.00
10538;DHT22;5317;49.048;8.468;2022-08-19T12:36:56;30.90;44.40
10538;DHT22;5317;49.048;8.468;2022-08-19T12:39:24;31.10;44.70
10538;DHT22;5317;49.048;8.468;2022-08-19T12:41:52;31.20;44.80
10538;DHT22;5317;49.048;8.468;2022-08-19T12:44:21;31.20;43.50
10538;DHT22;5317;49.048;8.468;2022-08-19T12:46:49;31.20;43.30
10538;DHT22;5317;49.048;8.468;2022-08-19T12:49:16;31.20;44.30
10538;DHT22;5317;49.048;8.468;2022-08-19T12:51:43;31.40;44.50
10538;DHT22;5317;49.048;8.468;2022-08-19T12:54:11;31.60;44.40
10538;DHT22;5317;49.048;8.468;2022-08-19T12:56:40;31.70;44.20
10538;DHT22;5317;49.048;8.468;2022-08-19T12:59:07;31.80;43.30
10538;DHT22;5317;49.048;8.468;2022-08-19T13:01:38;32.00;43.40
10538;DHT22;5317;49.048;8.468;2022-08-19T13:04:06;32.30;43.50
10538;DHT22;5317;49.048;8.468;2022-08-19T13:06:34;32.60;43.20
10538;DHT22;5317;49.048;8.468;2022-08-19T13:09:02;32.80;42.70
10538;DHT22;5317;49.048;8.468;2022-08-19T13:11:30;33.00;42.20
10538;DHT22;5317;49.048;8.468;2022-08-19T13:13:58;32.90;41.10
10538;DHT22;5317;49.048;8.468;2022-08-19T13:16:26;32.70;41.40
10538;DHT22;5317;49.048;8.468;2022-08-19T13:18:56;32.60;41.70
10538;DHT22;5317;49.048;8.468;2022-08-19T13:21:26;32.50;41.20
10538;DHT22;5317;49.048;8.468;2022-08-19T13:23:55;32.30;41.90
10538;DHT22;5317;49.048;8.468;2022-08-19T13:26:23;32.20;42.10
10538;DHT22;5317;49.048;8.468;2022-08-19T13:28:50;32.10;42.20
10538;DHT22;5317;49.048;8.468;2022-08-19T13:31:36;32.10;42.20
10538;DHT22;5317;49.048;8.468;2022-08-19T13:34:31;32.00;42.40
10538;DHT22;5317;49.048;8.468;2022-08-19T13:37:03;32.10;42.10
10538;DHT22;5317;49.048;8.468;2022-08-19T13:39:32;32.10;42.30
10538;DHT22;5317;49.048;8.468;2022-08-19T13:42:01;32.20;42.20
10538;DHT22;5317;49.048;8.468;2022-08-19T13:44:30;32.30;42.50
10538;DHT22;5317;49.048;8.468;2022-08-19T13:47:00;32.40;41.70
10538;DHT22;5317;49.048;8.468;2022-08-19T13:49:34;32.60;40.60
10538;DHT22;5317;49.048;8.468;2022-08-19T13:52:03;32.80;41.00
10538;DHT22;5317;49.048;8.468;2022-08-19T13:54:31;33.00;40.70
10538;DHT22;5317;49.048;8.468;2022-08-19T13:56:58;33.20;40.50
10538;DHT22;5317;49.048;8.468;2022-08-19T13:59:25;33.40;40.30
10538;DHT22;5317;49.048;8.468;2022-08-19T14:01:57;33.60;40.00
10538;DHT22;5317;49.048;8.468;2022-08-19T14:04:25;33.60;39.10
10538;DHT22;5317;49.048;8.468;2022-08-19T14:07:01;33.70;39.10
10538;DHT22;5317;49.048;8.468;2022-08-19T14:09:29;33.70;39.30
10538;DHT22;5317;49.048;8.468;2022-08-19T14:11:56;33.70;38.70
10538;DHT22;5317;49.048;8.468;2022-08-19T14:14:23;33.60;38.60
10538;DHT22;5317;49.048;8.468;2022-08-19T14:16:50;33.50;37.10
10538;DHT22;5317;49.048;8.468;2022-08-19T14:19:18;33.30;35.40
10538;DHT22;5317;49.048;8.468;2022-08-19T14:21:45;33.00;37.00
10538;DHT22;5317;49.048;8.468;2022-08-19T14:24:14;33.00;37.50
10538;DHT22;5317;49.048;8.468;2022-08-19T14:26:41;33.10;37.40
10538;DHT22;5317;49.048;8.468;2022-08-19T14:29:08;33.20;37.50
10538;DHT22;5317;49.048;8.468;2022-08-19T14:31:36;33.40;37.00
10538;DHT22;5317;49.048;8.468;2022-08-19T14:34:05;33.30;34.40
10538;DHT22;5317;49.048;8.468;2022-08-19T14:36:32;33.20;36.10
10538;DHT22;5317;49.048;8.468;2022-08-19T14:39:00;33.30;36.90
10538;DHT22;5317;49.048;8.468;2022-08-19T14:41:28;33.50;36.90
10538;DHT22;5317;49.048;8.468;2022-08-19T14:43:57;33.60;36.80
10538;DHT22;5317;49.048;8.468;2022-08-19T14:46:26;33.70;36.30
10538;DHT22;5317;49.048;8.468;2022-08-19T14:48:55;33.60;36.80
10538;DHT22;5317;49.048;8.468;2022-08-19T14:51:24;33.60;36.80
10538;DHT22;5317;49.048;8.468;2022-08-19T14:53:53;33.50;36.90
10538;DHT22;5317;49.048;8.468;2022-08-19T14:56:22;33.40;37.00
10538;DHT22;5317;49.048;8.468;2022-08-19T14:58:52;33.30;37.10
10538;DHT22;5317;49.048;8.468;2022-08-19T15:01:22;33.20;37.30
10538;DHT22;5317;49.048;8.468;2022-08-19T15:03:49;33.10;36.90
10538;DHT22;5317;49.048;8.468;2022-08-19T15:06:19;32.90;36.70
10538;DHT22;5317;49.048;8.468;2022-08-19T15:08:47;32.60;36.90
10538;DHT22;5317;49.048;8.468;2022-08-19T15:11:19;32.60;37.60
10538;DHT22;5317;49.048;8.468;2022-08-19T15:13:49;32.50;36.80
10538;DHT22;5317;49.048;8.468;2022-08-19T15:16:18;32.40;37.70
10538;DHT22;5317;49.048;8.468;2022-08-19T15:18:48;32.30;37.80
10538;DHT22;5317;49.048;8.468;2022-08-19T15:21:17;32.30;38.20
10538;DHT22;5317;49.048;8.468;2022-08-19T15:23:45;32.30;37.70
10538;DHT22;5317;49.048;8.468;2022-08-19T15:26:13;32.20;37.40
10538;DHT22;5317;49.048;8.468;2022-08-19T15:28:41;32.10;38.30
10538;DHT22;5317;49.048;8.468;2022-08-19T15:31:10;32.10;38.40
10538;DHT22;5317;49.048;8.468;2022-08-19T15:33:40;32.00;38.40
10538;DHT22;5317;49.048;8.468;2022-08-19T15:36:10;32.00;37.80
10538;DHT22;5317;49.048;8.468;2022-08-19T15:38:38;32.00;37.80
10538;DHT22;5317;49.048;8.468;2022-08-19T15:41:16;32.00;38.00
10538;DHT22;5317;49.048;8.468;2022-08-19T15:43:53;32.00;38.10
10538;DHT22;5317;49.048;8.468;2022-08-19T15:46:26;32.00;38.40
10538;DHT22;5317;49.048;8.468;2022-08-19T15:48:57;31.90;37.40
10538;DHT22;5317;49.048;8.468;2022-08-19T15:51:27;31.80;37.60
10538;DHT22;5317;49.048;8.468;2022-08-19T15:53:56;31.70;37.50
10538;DHT22;5317;49.048;8.468;2022-08-19T15:56:23;31.60;38.10
10538;DHT22;5317;49.048;8.468;2022-08-19T15:58:50;31.60;38.30
10538;DHT22;5317;49.048;8.468;2022-08-19T16:01:36;31.70;38.60
10538;DHT22;5317;49.048;8.468;2022-08-19T16:04:22;31.70;38.80
10538;DHT22;5317;49.048;8.468;2022-08-19T16:07:09;31.70;38.70